createdAt,value
2022-10-23T00:01:38.200Z,99213.00
2022-10-23T00:04:12.143Z,99215.94
2022-10-23T00:06:38.911Z,99215.16
2022-10-23T00:09:07.170Z,99215.06
2022-10-23T00:11:34.880Z,99204.03
2022-10-23T00:14:04.066Z,99214.22
2022-10-23T00:16:31.220Z,99192.19
2022-10-23T00:18:57.939Z,99213.41
2022-10-23T00:21:25.262Z,99197.91
2022-10-23T00:23:52.326Z,99210.94
2022-10-23T00:26:19.772Z,99208.19
2022-10-23T00:28:49.705Z,99204.06
2022-10-23T00:31:16.665Z,99207.47
2022-10-23T00:33:44.053Z,99199.03
2022-10-23T00:36:13.303Z,99199.94
2022-10-23T00:38:40.137Z,99207.81
2022-10-23T00:41:09.174Z,99210.41
2022-10-23T00:43:55.931Z,99196.56
2022-10-23T00:46:22.542Z,99165.69
2022-10-23T00:48:49.190Z,99184.50
2022-10-23T00:51:15.840Z,99163.97
2022-10-23T00:53:43.764Z,99180.06
2022-10-23T00:56:10.917Z,99181.81
2022-10-23T00:58:37.532Z,99182.41
2022-10-23T01:01:17.217Z,99179.97
2022-10-23T01:03:44.056Z,99175.88
2022-10-23T01:06:18.961Z,99159.41
2022-10-23T01:08:55.797Z,99163.78
2022-10-23T01:11:29.258Z,99181.69
2022-10-23T01:13:58.904Z,99173.88
2022-10-23T01:16:40.915Z,99168.72
2022-10-23T01:19:21.504Z,99167.06
2022-10-23T01:22:13.466Z,99173.09
2022-10-23T01:24:55.895Z,99167.78
2022-10-23T01:27:24.633Z,99160.06
2022-10-23T01:30:06.699Z,99161.78
2022-10-23T01:32:44.656Z,99155.84
2022-10-23T01:35:35.004Z,99152.44
2022-10-23T01:38:15.278Z,99150.53
2022-10-23T01:40:47.731Z,99161.66
2022-10-23T01:43:26.505Z,99160.69
2022-10-23T01:46:04.552Z,99161.38
2022-10-23T01:48:32.144Z,99159.59
2022-10-23T01:51:04.895Z,99155.53
2022-10-23T01:53:35.205Z,99164.81
2022-10-23T01:56:03.777Z,99139.09
2022-10-23T01:58:31.624Z,99148.56
2022-10-23T02:01:01.455Z,99169.97
2022-10-23T02:03:29.531Z,99166.50
2022-10-23T02:05:56.174Z,99176.84
2022-10-23T02:08:22.888Z,99164.81
2022-10-23T02:11:09.494Z,99169.97
2022-10-23T02:13:52.702Z,99177.84
2022-10-23T02:16:52.505Z,99161.47
2022-10-23T02:19:43.026Z,99165.09
2022-10-23T02:22:19.315Z,99159.94
2022-10-23T02:24:51.102Z,99161.66
2022-10-23T02:27:22.171Z,99170.94
2022-10-23T02:29:52.589Z,99165.72
2022-10-23T02:32:20.788Z,99164.94
2022-10-23T02:34:48.077Z,99163.22
2022-10-23T02:37:15.320Z,99135.84
2022-10-23T02:39:42.174Z,99151.06
2022-10-23T02:42:27.074Z,99153.47
2022-10-23T02:45:05.855Z,99150.94
2022-10-23T02:48:04.957Z,99157.06
2022-10-23T02:50:43.574Z,99150.06
2022-10-23T02:53:24.114Z,99141.41
2022-10-23T02:56:11.031Z,99147.41
2022-10-23T02:58:45.084Z,99149.97
2022-10-23T03:01:17.777Z,99135.31
2022-10-23T03:03:56.816Z,99141.25
2022-10-23T03:06:24.166Z,99139.28
2022-10-23T03:09:10.092Z,99137.47
2022-10-23T03:11:36.927Z,99121.28
2022-10-23T03:14:03.554Z,99131.34
2022-10-23T03:16:30.197Z,99120.25
2022-10-23T03:18:56.809Z,99122.53
2022-10-23T03:21:23.510Z,99129.41
2022-10-23T03:23:50.155Z,99120.75
2022-10-23T03:26:16.788Z,99112.97
2022-10-23T03:28:43.493Z,99101.69
2022-10-23T03:31:10.163Z,99114.47
2022-10-23T03:33:36.875Z,99115.47
2022-10-23T03:36:03.807Z,99058.09
2022-10-23T03:38:30.411Z,99102.03
2022-10-23T03:40:57.063Z,99098.47
2022-10-23T03:43:23.696Z,99095.91
2022-10-23T03:45:52.045Z,99075.31
2022-10-23T03:48:18.699Z,99074.59
2022-10-23T03:50:45.367Z,99091.22
2022-10-23T03:53:12.082Z,99083.47
2022-10-23T03:55:38.754Z,99088.69
2022-10-23T03:58:05.461Z,99080.72
2022-10-23T04:00:32.158Z,99082.44
2022-10-23T04:02:58.819Z,99074.53
2022-10-23T04:05:25.418Z,99067.44
2022-10-23T04:07:52.052Z,99057.06
2022-10-23T04:10:18.826Z,99066.53
2022-10-23T04:12:45.675Z,99056.03
2022-10-23T04:15:12.407Z,99062.91
2022-10-23T04:17:39.002Z,99044.03
2022-10-23T04:20:05.826Z,99051.53
2022-10-23T04:22:32.389Z,99053.41
2022-10-23T04:24:58.978Z,99049.69
2022-10-23T04:27:25.653Z,99055.69
2022-10-23T04:29:54.377Z,99051.31
2022-10-23T04:32:23.494Z,99046.88
2022-10-23T04:34:50.078Z,99041.03
2022-10-23T04:37:17.164Z,99052.66
2022-10-23T04:39:43.829Z,99051.78
2022-10-23T04:42:10.486Z,99049.22
2022-10-23T04:44:37.093Z,99036.31
2022-10-23T04:47:03.815Z,99044.06
2022-10-23T04:49:30.483Z,99042.09
2022-10-23T04:51:57.104Z,99055.91
2022-10-23T04:54:23.798Z,99042.25
2022-10-23T04:56:50.470Z,99045.47
2022-10-23T04:59:17.117Z,99039.38
2022-10-23T05:01:43.812Z,99040.44
2022-10-23T05:04:10.501Z,99053.91
2022-10-23T05:06:37.169Z,99037.59
2022-10-23T05:09:04.156Z,99033.25
2022-10-23T05:11:30.799Z,99036.56
2022-10-23T05:13:57.454Z,99044.38
2022-10-23T05:16:32.078Z,99045.03
2022-10-23T05:18:59.916Z,99039.88
2022-10-23T05:21:29.363Z,99059.50
2022-10-23T05:23:56.099Z,99049.19
2022-10-23T05:26:22.852Z,99062.94
2022-10-23T05:28:49.651Z,99060.22
2022-10-23T05:31:16.503Z,99041.56
2022-10-23T05:33:43.483Z,99032.91
2022-10-23T05:36:11.899Z,99025.91
2022-10-23T05:38:38.574Z,99040.16
2022-10-23T05:41:06.021Z,99044.34
2022-10-23T05:43:32.683Z,99034.03
2022-10-23T05:45:59.538Z,99051.75
2022-10-23T05:48:41.116Z,99047.44
2022-10-23T05:51:09.891Z,99044.06
2022-10-23T05:53:38.902Z,99053.50
2022-10-23T05:56:09.139Z,99050.91
2022-10-23T05:58:36.035Z,99049.94
2022-10-23T06:01:07.734Z,99046.69
2022-10-23T06:03:34.938Z,99037.34
2022-10-23T06:06:01.553Z,99029.44
2022-10-23T06:08:28.178Z,99038.84
2022-10-23T06:10:54.802Z,99042.94
2022-10-23T06:13:21.446Z,99037.91
2022-10-23T06:15:48.138Z,99047.03
2022-10-23T06:18:14.951Z,99045.19
2022-10-23T06:20:41.612Z,99035.72
2022-10-23T06:23:08.657Z,99049.84
2022-10-23T06:25:35.309Z,99036.00
2022-10-23T06:28:01.939Z,99039.03
2022-10-23T06:30:28.629Z,99035.78
2022-10-23T06:32:55.438Z,99043.34
2022-10-23T06:35:22.045Z,99034.88
2022-10-23T06:37:48.671Z,99051.75
2022-10-23T06:40:15.413Z,99029.44
2022-10-23T06:42:42.237Z,99047.22
2022-10-23T06:45:09.125Z,99025.13
2022-10-23T06:47:35.735Z,99048.78
2022-10-23T06:50:02.376Z,99047.22
2022-10-23T06:52:47.859Z,99043.63
2022-10-23T06:55:15.085Z,99031.53
2022-10-23T06:57:42.230Z,99038.09
2022-10-23T07:00:09.881Z,99037.34
2022-10-23T07:02:36.817Z,99039.81
2022-10-23T07:05:04.085Z,99045.44
2022-10-23T07:07:30.954Z,99038.19
2022-10-23T07:09:57.745Z,99042.25
2022-10-23T07:12:24.565Z,99044.56
2022-10-23T07:14:51.163Z,99056.50
2022-10-23T07:17:17.850Z,99055.66
2022-10-23T07:19:44.557Z,99059.34
2022-10-23T07:22:13.449Z,99036.72
2022-10-23T07:24:42.653Z,99051.34
2022-10-23T07:27:09.945Z,99046.59
2022-10-23T07:29:37.105Z,99044.22
2022-10-23T07:32:04.616Z,99046.53
2022-10-23T07:34:32.232Z,99031.13
2022-10-23T07:36:58.944Z,99044.53
2022-10-23T07:39:25.756Z,99039.94
2022-10-23T07:41:52.526Z,99027.91
2022-10-23T07:44:21.059Z,99038.19
2022-10-23T07:46:50.017Z,99032.75
2022-10-23T07:49:16.661Z,99027.03
2022-10-23T07:51:46.414Z,99033.66
2022-10-23T07:54:15.537Z,99031.72
2022-10-23T07:56:42.244Z,99031.66
2022-10-23T07:59:12.353Z,99036.59
2022-10-23T08:01:39.265Z,99035.69
2022-10-23T08:04:06.263Z,99033.16
2022-10-23T08:06:35.353Z,99030.84
2022-10-23T08:09:05.441Z,99040.91
2022-10-23T08:11:35.774Z,99029.59
2022-10-23T08:14:04.748Z,99046.69
2022-10-23T08:16:34.411Z,99042.34
2022-10-23T08:19:01.437Z,99050.88
2022-10-23T08:21:28.221Z,99047.97
2022-10-23T08:23:56.309Z,99041.81
2022-10-23T08:26:24.673Z,99034.44
2022-10-23T08:28:52.287Z,99039.34
2022-10-23T08:31:20.934Z,99036.50
2022-10-23T08:36:25.437Z,99056.09
2022-10-23T08:38:56.046Z,99057.50
2022-10-23T08:41:27.898Z,99051.25
2022-10-23T08:44:24.244Z,99059.47
2022-10-23T08:47:13.163Z,99056.25
2022-10-23T08:49:41.613Z,99065.72
2022-10-23T08:52:24.413Z,99052.31
2022-10-23T08:54:57.256Z,99063.47
2022-10-23T08:57:24.753Z,99067.50
2022-10-23T09:00:05.455Z,99068.31
2022-10-23T09:02:41.606Z,99072.28
2022-10-23T09:05:48.234Z,99069.06
2022-10-23T09:08:39.446Z,99074.13
2022-10-23T09:11:11.149Z,99073.19
2022-10-23T09:13:40.710Z,99072.47
2022-10-23T09:16:28.790Z,99070.69
2022-10-23T09:18:55.915Z,99068.25
2022-10-23T09:21:29.048Z,99074.25
2022-10-23T09:23:56.487Z,99075.00
2022-10-23T09:26:23.665Z,99069.44
2022-10-23T09:28:55.278Z,99059.53
2022-10-23T09:31:21.963Z,99077.06
2022-10-23T09:33:57.125Z,99083.25
2022-10-23T09:36:29.260Z,99082.47
2022-10-23T09:39:01.757Z,99085.44
2022-10-23T09:41:30.069Z,99088.91
2022-10-23T09:44:08.899Z,99082.34
2022-10-23T09:46:46.726Z,99086.63
2022-10-23T09:49:22.595Z,99088.81
2022-10-23T09:51:56.418Z,99085.13
2022-10-23T09:54:26.355Z,99096.44
2022-10-23T09:56:54.604Z,99086.13
2022-10-23T09:59:25.706Z,99088.66
2022-10-23T10:01:58.490Z,99083.09
2022-10-23T10:04:51.554Z,99090.94
2022-10-23T10:07:24.311Z,99079.63
2022-10-23T10:09:52.798Z,99078.03
2022-10-23T10:12:28.467Z,99088.78
2022-10-23T10:15:17.086Z,99091.72
2022-10-23T10:17:56.113Z,99070.66
2022-10-23T10:20:44.185Z,99096.19
2022-10-23T10:23:28.687Z,99089.59
2022-10-23T10:26:05.036Z,99090.81
2022-10-23T10:28:44.834Z,99086.22
2022-10-23T10:31:43.166Z,99086.56
2022-10-23T10:34:12.831Z,99091.31
2022-10-23T10:37:07.899Z,99076.22
2022-10-23T10:39:42.497Z,99073.09
2022-10-23T10:42:55.602Z,99080.47
2022-10-23T10:45:38.119Z,99085.97
2022-10-23T10:48:48.871Z,99088.78
2022-10-23T10:51:30.302Z,99090.56
2022-10-23T10:54:11.834Z,99094.16
2022-10-23T10:56:40.097Z,99091.53
2022-10-23T10:59:12.727Z,99094.84
2022-10-23T11:01:47.735Z,99092.38
2022-10-23T11:04:41.252Z,99089.59
2022-10-23T11:07:12.168Z,99099.66
2022-10-23T11:09:39.551Z,99075.72
2022-10-23T11:12:06.401Z,99091.06
2022-10-23T11:14:34.110Z,99093.34
2022-10-23T11:17:05.320Z,99098.47
2022-10-23T11:19:41.264Z,99089.22
2022-10-23T11:22:30.261Z,99095.25
2022-10-23T11:25:19.021Z,99095.44
2022-10-23T11:28:13.299Z,99081.66
2022-10-23T11:30:49.112Z,99098.97
2022-10-23T11:33:34.212Z,99095.97
2022-10-23T11:36:07.128Z,99096.44
2022-10-23T11:38:35.413Z,99101.03
2022-10-23T11:41:07.454Z,99096.47
2022-10-23T11:43:53.242Z,99109.69
2022-10-23T11:46:23.057Z,99111.25
2022-10-23T11:48:49.995Z,99109.19
2022-10-23T11:51:35.878Z,99119.41
2022-10-23T11:54:28.735Z,99129.50
2022-10-23T11:57:10.248Z,99134.75
2022-10-23T11:59:43.112Z,99141.63
2022-10-23T12:02:33.732Z,99141.97
2022-10-23T12:05:07.595Z,99134.38
2022-10-23T12:07:38.660Z,99124.00
2022-10-23T12:10:07.105Z,99099.44
2022-10-23T12:12:34.698Z,99083.47
2022-10-23T12:15:22.172Z,99070.06
2022-10-23T12:17:50.407Z,99063.31
2022-10-23T12:20:21.616Z,99040.50
2022-10-23T12:23:13.069Z,99037.97
2022-10-23T12:25:39.678Z,99027.72
2022-10-23T12:28:06.242Z,99021.84
2022-10-23T12:33:52.809Z,99014.41
2022-10-23T12:36:48.073Z,98998.75
2022-10-23T12:39:28.853Z,99001.47
2022-10-23T12:41:55.957Z,98996.72
2022-10-23T12:44:24.371Z,99007.88
2022-10-23T12:46:57.492Z,99005.34
2022-10-23T12:49:26.579Z,99016.78
2022-10-23T12:52:04.540Z,99018.00
2022-10-23T12:54:32.675Z,99024.84
2022-10-23T12:56:59.334Z,98995.75
2022-10-23T12:59:52.118Z,99038.75
2022-10-23T13:02:23.221Z,99028.31
2022-10-23T13:04:51.753Z,99042.56
2022-10-23T13:07:27.253Z,99045.56
2022-10-23T13:09:54.513Z,99051.84
2022-10-23T13:12:32.937Z,99061.97
2022-10-23T13:15:14.585Z,99073.59
2022-10-23T13:17:42.550Z,99082.47
2022-10-23T13:20:18.505Z,99080.91
2022-10-23T13:22:47.007Z,99079.47
2022-10-23T13:25:27.173Z,99090.63
2022-10-23T13:28:09.017Z,99081.00
2022-10-23T13:30:42.134Z,99075.34
2022-10-23T13:33:20.854Z,99072.81
2022-10-23T13:36:23.433Z,99066.31
2022-10-23T13:39:10.334Z,99103.22
2022-10-23T13:41:40.656Z,99096.88
2022-10-23T13:44:07.722Z,99095.44
2022-10-23T13:46:34.368Z,99094.88
2022-10-23T13:49:00.987Z,99088.97
2022-10-23T13:51:29.059Z,99104.03
2022-10-23T13:53:56.978Z,99113.84
2022-10-23T13:56:25.339Z,99111.50
2022-10-23T13:58:52.064Z,99107.34
2022-10-23T14:01:29.908Z,99126.38
2022-10-23T14:03:58.048Z,99127.00
2022-10-23T14:06:25.189Z,99149.56
2022-10-23T14:08:52.146Z,99134.75
2022-10-23T14:11:20.140Z,99149.00
2022-10-23T14:13:48.414Z,99142.22
2022-10-23T14:16:17.125Z,99163.03
2022-10-23T14:18:44.057Z,99168.44
2022-10-23T14:21:15.319Z,99160.91
2022-10-23T14:23:41.966Z,99162.94
2022-10-23T14:26:11.854Z,99176.91
2022-10-23T14:28:38.873Z,99171.50
2022-10-23T14:31:06.774Z,99167.56
2022-10-23T14:33:33.563Z,99165.09
2022-10-23T14:36:00.194Z,99159.44
2022-10-23T14:38:27.202Z,99178.69
2022-10-23T14:40:53.851Z,99165.66
2022-10-23T14:43:20.954Z,99180.47
2022-10-23T14:45:47.576Z,99176.34
2022-10-23T14:48:14.256Z,99200.09
2022-10-23T14:50:46.786Z,99190.38
2022-10-23T14:53:14.165Z,99193.81
2022-10-23T14:55:40.807Z,99191.88
2022-10-23T14:58:08.037Z,99205.34
2022-10-23T15:00:34.666Z,99207.69
2022-10-23T15:03:01.289Z,99211.41
2022-10-23T15:05:27.940Z,99218.59
2022-10-23T15:07:55.970Z,99218.53
2022-10-23T15:10:22.613Z,99223.53
2022-10-23T15:12:49.371Z,99229.84
2022-10-23T15:15:16.019Z,99211.75
2022-10-23T15:17:42.632Z,99239.50
2022-10-23T15:20:09.880Z,99234.84
2022-10-23T15:22:36.484Z,99215.69
2022-10-23T15:25:03.214Z,99234.09
2022-10-23T15:27:29.838Z,99248.13
2022-10-23T15:29:56.503Z,99227.31
2022-10-23T15:32:23.320Z,99237.72
2022-10-23T15:34:50.362Z,99236.00
2022-10-23T15:37:16.962Z,99250.66
2022-10-23T15:39:44.388Z,99241.94
2022-10-23T15:42:11.603Z,99242.72
2022-10-23T15:44:39.750Z,99214.22
2022-10-23T15:47:06.439Z,99245.72
2022-10-23T15:49:33.359Z,99245.41
2022-10-23T15:52:00.116Z,99250.97
2022-10-23T15:54:29.341Z,99265.78
2022-10-23T15:56:58.720Z,99233.91
2022-10-23T15:59:25.953Z,99265.25
2022-10-23T16:01:52.843Z,99271.25
2022-10-23T16:04:20.092Z,99260.47
2022-10-23T16:06:47.145Z,99275.53
2022-10-23T16:09:14.374Z,99286.28
2022-10-23T16:11:42.711Z,99295.91
2022-10-23T16:14:13.258Z,99307.94
2022-10-23T16:16:39.974Z,99289.97
2022-10-23T16:19:06.683Z,99301.84
2022-10-23T16:21:35.890Z,99286.44
2022-10-23T16:24:04.919Z,99302.78
2022-10-23T16:26:31.832Z,99307.25
2022-10-23T16:29:01.201Z,99293.94
2022-10-23T16:31:28.794Z,99317.47
2022-10-23T16:36:29.700Z,99316.78
2022-10-23T16:38:56.765Z,99327.34
2022-10-23T16:41:23.375Z,99325.03
2022-10-23T16:43:50.189Z,99317.25
2022-10-23T16:46:19.752Z,99336.00
2022-10-23T16:48:46.693Z,99319.78
2022-10-23T16:51:15.686Z,99342.16
2022-10-23T16:53:43.489Z,99339.53
2022-10-23T16:56:11.918Z,99327.59
2022-10-23T16:58:41.027Z,99328.16
2022-10-23T17:01:10.829Z,99314.72
2022-10-23T17:03:39.867Z,99329.13
2022-10-23T17:06:11.061Z,99337.59
2022-10-23T17:08:38.026Z,99319.19
2022-10-23T17:11:04.643Z,99341.13
2022-10-23T17:13:31.446Z,99328.81
2022-10-23T17:16:10.200Z,99305.78
2022-10-23T17:18:39.914Z,99339.00
2022-10-23T17:21:11.229Z,99317.03
2022-10-23T17:23:37.966Z,99329.34
2022-10-23T17:26:14.313Z,99339.00
2022-10-23T17:28:42.470Z,99323.44
2022-10-23T17:31:33.667Z,99340.53
2022-10-23T17:34:04.160Z,99329.97
2022-10-23T17:36:33.472Z,99335.50
2022-10-23T17:39:00.238Z,99338.38
2022-10-23T17:41:27.065Z,99299.06
2022-10-23T17:43:58.500Z,99309.16
2022-10-23T17:46:26.064Z,99335.72
2022-10-23T17:48:53.177Z,99332.34
2022-10-23T17:51:22.767Z,99324.34
2022-10-23T17:53:51.456Z,99325.25
2022-10-23T17:56:25.022Z,99330.41
2022-10-23T17:58:59.261Z,99338.44
2022-10-23T18:01:27.605Z,99322.94
2022-10-23T18:03:55.672Z,99335.50
2022-10-23T18:06:28.776Z,99329.56
2022-10-23T18:08:57.148Z,99343.38
2022-10-23T18:11:26.725Z,99343.44
2022-10-23T18:13:54.134Z,99343.28
2022-10-23T18:16:21.237Z,99338.03
2022-10-23T18:18:48.888Z,99350.47
2022-10-23T18:21:17.719Z,99332.44
2022-10-23T18:23:44.535Z,99328.97
2022-10-23T18:26:22.785Z,99340.06
2022-10-23T18:28:51.729Z,99349.44
2022-10-23T18:31:19.892Z,99349.22
2022-10-23T18:33:47.170Z,99350.16
2022-10-23T18:36:16.053Z,99352.72
2022-10-23T18:38:43.368Z,99356.19
2022-10-23T18:41:10.404Z,99357.22
2022-10-23T18:43:44.862Z,99359.41
2022-10-23T18:46:14.858Z,99340.28
2022-10-23T18:48:42.238Z,99350.78
2022-10-23T18:51:23.904Z,99373.03
2022-10-23T18:53:50.862Z,99356.78
2022-10-23T18:56:23.403Z,99376.44
2022-10-23T18:58:55.647Z,99362.25
2022-10-23T19:01:23.244Z,99372.44
2022-10-23T19:03:50.125Z,99368.22
2022-10-23T19:06:18.205Z,99365.59
2022-10-23T19:08:45.517Z,99377.00
2022-10-23T19:11:13.397Z,99372.34
2022-10-23T19:13:40.827Z,99380.16
2022-10-23T19:16:12.150Z,99374.53
2022-10-23T19:18:40.970Z,99343.94
2022-10-23T19:21:07.833Z,99375.34
2022-10-23T19:23:36.524Z,99382.16
2022-10-23T19:26:09.077Z,99375.44
2022-10-23T19:28:38.026Z,99390.94
2022-10-23T19:31:05.507Z,99380.69
2022-10-23T19:33:32.682Z,99360.97
2022-10-23T19:36:01.238Z,99365.13
2022-10-23T19:38:31.904Z,99384.63
2022-10-23T19:40:58.496Z,99373.84
2022-10-23T19:43:25.097Z,99384.00
2022-10-23T19:45:51.693Z,99379.06
2022-10-23T19:48:18.345Z,99385.69
2022-10-23T19:50:45.065Z,99392.72
2022-10-23T19:53:11.879Z,99366.19
2022-10-23T19:55:38.491Z,99385.09
2022-10-23T19:58:05.124Z,99388.81
2022-10-23T20:00:31.735Z,99368.13
2022-10-23T20:02:58.788Z,99404.69
2022-10-23T20:05:26.328Z,99390.25
2022-10-23T20:07:53.344Z,99415.63
2022-10-23T20:10:20.024Z,99412.53
2022-10-23T20:12:56.442Z,99412.63
2022-10-23T20:15:29.161Z,99407.53
2022-10-23T20:17:55.909Z,99408.97
2022-10-23T20:20:22.921Z,99405.91
2022-10-23T20:22:54.537Z,99411.22
2022-10-23T20:25:22.175Z,99418.03
2022-10-23T20:27:48.882Z,99413.22
2022-10-23T20:30:15.532Z,99418.31
2022-10-23T20:32:42.412Z,99414.06
2022-10-23T20:35:09.920Z,99420.41
2022-10-23T20:37:36.558Z,99421.03
2022-10-23T20:40:03.441Z,99443.00
2022-10-23T20:42:30.068Z,99404.38
2022-10-23T20:44:56.681Z,99428.34
2022-10-23T20:47:23.299Z,99428.19
2022-10-23T20:49:49.971Z,99432.44
2022-10-23T20:52:16.688Z,99433.34
2022-10-23T20:54:43.356Z,99432.56
2022-10-23T20:57:10.013Z,99422.69
2022-10-23T20:59:36.618Z,99446.69
2022-10-23T21:02:03.435Z,99415.78
2022-10-23T21:04:30.165Z,99432.50
2022-10-23T21:07:09.981Z,99422.97
2022-10-23T21:09:38.023Z,99420.63
2022-10-23T21:12:06.632Z,99433.06
2022-10-23T21:14:33.770Z,99424.34
2022-10-23T21:17:00.496Z,99412.78
2022-10-23T21:19:27.282Z,99424.47
2022-10-23T21:21:54.614Z,99417.72
2022-10-23T21:24:21.242Z,99424.34
2022-10-23T21:26:48.061Z,99429.66
2022-10-23T21:29:19.396Z,99418.47
2022-10-23T21:31:54.507Z,99429.81
2022-10-23T21:34:21.421Z,99428.88
2022-10-23T21:37:11.210Z,99417.94
2022-10-23T21:39:34.820Z,99417.72
2022-10-23T21:42:01.479Z,99425.41
2022-10-23T21:44:28.108Z,99431.88
2022-10-23T21:46:55.365Z,99425.88
2022-10-23T21:49:21.987Z,99425.81
2022-10-23T21:51:48.571Z,99436.97
2022-10-23T21:54:15.533Z,99430.19
2022-10-23T21:56:48.243Z,99445.28
2022-10-23T21:59:17.615Z,99442.59
2022-10-23T22:01:45.797Z,99433.50
2022-10-23T22:04:17.528Z,99449.09
2022-10-23T22:06:44.882Z,99448.06
2022-10-23T22:09:16.562Z,99448.81
2022-10-23T22:11:43.215Z,99450.16
2022-10-23T22:14:09.935Z,99451.78
2022-10-23T22:16:36.762Z,99443.84
2022-10-23T22:19:03.854Z,99447.44
2022-10-23T22:21:30.846Z,99453.53
2022-10-23T22:23:59.063Z,99462.03
2022-10-23T22:26:27.557Z,99464.81
2022-10-23T22:28:55.754Z,99447.06
2022-10-23T22:31:25.912Z,99463.41
2022-10-23T22:33:53.588Z,99463.28
2022-10-23T22:36:20.617Z,99462.09
2022-10-23T22:38:47.377Z,99458.78
2022-10-23T22:41:14.491Z,99449.41
2022-10-23T22:43:41.244Z,99461.34
2022-10-23T22:46:13.433Z,99463.28
2022-10-23T22:48:40.426Z,99470.03
2022-10-23T22:51:09.056Z,99470.91
2022-10-23T22:53:36.128Z,99464.53
2022-10-23T22:56:06.675Z,99468.22
2022-10-23T22:58:33.815Z,99463.19
2022-10-23T23:01:11.822Z,99471.56
2022-10-23T23:03:38.851Z,99482.03
2022-10-23T23:06:07.088Z,99464.53
2022-10-23T23:08:34.857Z,99458.88
2022-10-23T23:11:01.866Z,99485.44
2022-10-23T23:13:28.687Z,99460.16
2022-10-23T23:15:55.625Z,99472.16
2022-10-23T23:18:22.886Z,99461.19
2022-10-23T23:20:49.537Z,99466.34
2022-10-23T23:23:16.676Z,99472.25
2022-10-23T23:25:47.462Z,99484.38
2022-10-23T23:28:15.734Z,99471.03
2022-10-23T23:30:43.070Z,99482.28
2022-10-23T23:33:10.489Z,99474.72
2022-10-23T23:35:45.048Z,99470.31
2022-10-23T23:38:12.798Z,99472.94
2022-10-23T23:40:40.157Z,99467.69
2022-10-23T23:43:07.169Z,99468.56
2022-10-23T23:45:34.105Z,99457.91
2022-10-23T23:48:00.800Z,99452.66
2022-10-23T23:50:28.135Z,99449.78
2022-10-23T23:52:54.870Z,99442.75
2022-10-23T23:55:21.495Z,99455.69
2022-10-23T23:57:48.161Z,99458.16
